Time;durP1;ratioP1;P1;durP2;ratioP2;P2;SDS_P1;SDS_P2;PMS_P1;PMS_P2;Temp;Humidity;BMP_temperature;BMP_pressure;BME280_temperature;BME280_humidity;BME280_pressure;Samples;Min_cycle;Max_cycle;Signal;HPM_P1;HPM_P2
2024/02/25 00:00:39;;;;;;;1.85;0.90;;;2.20;99.90;;;;;;5016361;28;20050;-79
2024/02/25 00:03:07;;;;;;;2.13;1.42;;;2.20;99.90;;;;;;5026420;28;20056;-78
2024/02/25 00:05:34;;;;;;;2.38;1.15;;;2.10;99.90;;;;;;5034941;28;20053;-79
2024/02/25 00:08:01;;;;;;;2.10;1.77;;;2.10;99.90;;;;;;5036350;28;20463;-79
2024/02/25 00:10:28;;;;;;;2.42;1.40;;;2.10;99.90;;;;;;5006024;28;20147;-80
2024/02/25 00:12:55;;;;;;;2.50;1.60;;;2.00;99.90;;;;;;5030143;28;20053;-80
2024/02/25 00:15:22;;;;;;;2.90;1.75;;;2.10;99.90;;;;;;5010098;28;20057;-80
2024/02/25 00:17:49;;;;;;;2.40;1.70;;;2.10;99.90;;;;;;5020864;28;20053;-80
2024/02/25 00:20:16;;;;;;;2.45;1.42;;;2.00;99.90;;;;;;5021873;28;20875;-81
2024/02/25 00:22:42;;;;;;;1.58;1.25;;;2.00;99.90;;;;;;5028237;28;20134;-80
2024/02/25 00:25:10;;;;;;;3.13;1.67;;;2.00;99.90;;;;;;5004857;28;20701;-80
2024/02/25 00:27:38;;;;;;;1.92;1.30;;;2.00;99.90;;;;;;5021144;28;20049;-80
2024/02/25 00:30:06;;;;;;;2.40;1.50;;;2.00;99.90;;;;;;5024995;28;20111;-80
2024/02/25 00:32:33;;;;;;;1.65;1.30;;;2.00;99.90;;;;;;5041262;28;20135;-81
2024/02/25 00:35:00;;;;;;;2.03;1.40;;;2.00;99.90;;;;;;5022088;28;20727;-81
2024/02/25 00:37:27;;;;;;;1.73;1.20;;;2.00;99.90;;;;;;5021697;28;20080;-80
2024/02/25 00:39:54;;;;;;;1.95;1.30;;;1.90;99.90;;;;;;5021592;28;20432;-80
2024/02/25 00:42:21;;;;;;;1.65;1.10;;;1.90;99.90;;;;;;5020266;28;20057;-81
2024/02/25 00:44:49;;;;;;;1.25;1.05;;;1.90;99.90;;;;;;5041209;28;20053;-81
2024/02/25 00:47:16;;;;;;;1.20;1.00;;;1.80;99.90;;;;;;5025419;28;20045;-80
2024/02/25 00:49:42;;;;;;;1.98;1.23;;;1.80;99.90;;;;;;5005892;28;20060;-80
2024/02/25 00:52:09;;;;;;;1.80;1.30;;;1.80;99.90;;;;;;5023546;28;20057;-81
2024/02/25 00:54:43;;;;;;;1.65;1.10;;;1.80;99.90;;;;;;5034071;28;20049;-81
2024/02/25 00:57:10;;;;;;;1.83;1.20;;;1.70;99.90;;;;;;5020752;28;20518;-81
2024/02/25 00:59:37;;;;;;;1.20;1.10;;;1.70;99.90;;;;;;5038922;28;20078;-81
2024/02/25 01:02:04;;;;;;;2.03;1.42;;;1.70;99.90;;;;;;5008510;28;20053;-81
2024/02/25 01:04:31;;;;;;;1.27;1.00;;;1.70;99.90;;;;;;5041444;28;20049;-80
2024/02/25 01:06:58;;;;;;;1.42;1.02;;;1.60;99.90;;;;;;5041096;28;20088;-81
2024/02/25 01:09:25;;;;;;;1.83;1.42;;;1.70;99.90;;;;;;5041255;28;20052;-80
2024/02/25 01:11:53;;;;;;;1.70;1.25;;;1.70;99.90;;;;;;5023503;28;20684;-80
2024/02/25 01:14:20;;;;;;;1.35;1.10;;;1.70;99.90;;;;;;5021586;28;20554;-80
2024/02/25 01:16:47;;;;;;;1.48;1.05;;;1.60;99.90;;;;;;5021907;28;20057;-80
2024/02/25 01:19:14;;;;;;;1.70;0.93;;;1.60;99.90;;;;;;5034888;28;20111;-80
2024/02/25 01:21:41;;;;;;;1.35;1.05;;;1.60;99.90;;;;;;5024669;28;20534;-80
2024/02/25 01:24:08;;;;;;;1.20;1.00;;;1.60;99.90;;;;;;5004268;28;20447;-80
2024/02/25 01:26:41;;;;;;;1.15;1.00;;;1.50;99.90;;;;;;5003482;28;20053;-81
2024/02/25 01:29:08;;;;;;;0.98;0.88;;;1.50;99.90;;;;;;4997960;28;20046;-80
2024/02/25 01:31:45;;;;;;;1.70;1.10;;;1.50;99.90;;;;;;5021299;28;20136;-80
2024/02/25 01:34:12;;;;;;;1.70;1.17;;;1.50;99.90;;;;;;5003514;28;20054;-79
2024/02/25 01:36:40;;;;;;;1.30;1.00;;;1.50;99.90;;;;;;5022636;28;20065;-80
2024/02/25 01:39:09;;;;;;;1.45;1.08;;;1.50;99.90;;;;;;5004477;28;20130;-80
2024/02/25 01:41:37;;;;;;;1.70;1.52;;;1.40;99.90;;;;;;5003635;28;20474;-80
2024/02/25 01:44:04;;;;;;;1.15;1.05;;;1.40;99.90;;;;;;5007635;28;20557;-80
2024/02/25 01:46:31;;;;;;;1.70;1.13;;;1.40;99.90;;;;;;5024467;28;20237;-80
2024/02/25 01:48:58;;;;;;;1.90;1.27;;;1.40;99.90;;;;;;5040456;28;20053;-80
2024/02/25 01:51:25;;;;;;;2.10;1.10;;;1.40;99.90;;;;;;5024496;28;20670;-81
2024/02/25 01:53:52;;;;;;;1.80;1.08;;;1.40;99.90;;;;;;5041176;28;20551;-81
2024/02/25 01:56:20;;;;;;;1.30;1.10;;;1.40;99.90;;;;;;5039973;28;20048;-80
2024/02/25 01:58:47;;;;;;;1.67;1.40;;;1.40;99.90;;;;;;5021247;28;20057;-80
2024/02/25 02:01:14;;;;;;;1.50;1.20;;;1.30;99.90;;;;;;5038029;28;20045;-80
2024/02/25 02:03:42;;;;;;;0.93;0.73;;;1.30;99.90;;;;;;5018121;28;20882;-80
2024/02/25 02:06:10;;;;;;;1.23;1.00;;;1.40;99.90;;;;;;5004431;28;20053;-79
2024/02/25 02:08:37;;;;;;;1.63;1.17;;;1.30;99.90;;;;;;5029517;28;20130;-80
2024/02/25 02:11:18;;;;;;;1.42;1.15;;;1.30;99.90;;;;;;5006761;28;20125;-80
2024/02/25 02:13:46;;;;;;;1.67;1.00;;;1.30;99.90;;;;;;5033896;28;20534;-80
2024/02/25 02:16:14;;;;;;;1.58;1.00;;;1.30;99.90;;;;;;5038474;28;20049;-80
2024/02/25 02:18:41;;;;;;;1.48;1.23;;;1.30;99.90;;;;;;5039318;28;20114;-81
2024/02/25 02:21:09;;;;;;;1.63;1.00;;;1.30;99.90;;;;;;5023811;28;20089;-81
2024/02/25 02:23:36;;;;;;;1.40;0.82;;;1.30;99.90;;;;;;5023314;28;20118;-81
2024/02/25 02:26:03;;;;;;;1.60;1.30;;;1.30;99.90;;;;;;5002876;28;20057;-80
2024/02/25 02:28:30;;;;;;;1.00;0.88;;;1.30;99.90;;;;;;5027548;28;20150;-80
2024/02/25 02:30:57;;;;;;;1.42;0.98;;;1.30;99.90;;;;;;5040231;28;20049;-80
2024/02/25 02:33:25;;;;;;;0.95;0.90;;;1.30;99.90;;;;;;5009166;28;20043;-80
2024/02/25 02:35:52;;;;;;;1.30;1.02;;;1.20;99.90;;;;;;5025048;28;20049;-80
2024/02/25 02:38:20;;;;;;;1.85;1.15;;;1.10;99.90;;;;;;5005319;28;20064;-81
2024/02/25 02:40:47;;;;;;;2.00;1.20;;;1.10;99.90;;;;;;4988507;28;20045;-80
2024/02/25 02:43:23;;;;;;;1.67;1.00;;;1.00;99.90;;;;;;5014751;28;20049;-81
2024/02/25 02:45:54;;;;;;;2.22;1.10;;;1.10;99.90;;;;;;5041964;28;20537;-81
2024/02/25 02:48:21;;;;;;;1.52;1.10;;;1.10;99.90;;;;;;5019981;28;20069;-81
2024/02/25 02:50:48;;;;;;;1.20;1.08;;;1.10;99.90;;;;;;5022006;28;20120;-81
2024/02/25 02:53:14;;;;;;;1.77;1.17;;;1.10;99.90;;;;;;5015309;28;20048;-80
2024/02/25 02:55:42;;;;;;;1.13;1.00;;;1.20;99.90;;;;;;5024880;28;20392;-80
2024/02/25 02:58:09;;;;;;;1.10;0.82;;;1.20;99.90;;;;;;5024009;28;20049;-80
2024/02/25 03:00:36;;;;;;;1.50;1.10;;;1.10;99.90;;;;;;5041874;28;20124;-80
2024/02/25 03:03:03;;;;;;;1.52;1.05;;;1.20;99.90;;;;;;5041342;28;20049;-80
2024/02/25 03:05:30;;;;;;;1.38;1.10;;;1.10;99.90;;;;;;5041571;28;20060;-80
2024/02/25 03:07:57;;;;;;;1.73;1.10;;;1.10;99.90;;;;;;5005886;28;20056;-80
2024/02/25 03:10:24;;;;;;;1.38;1.20;;;1.10;99.90;;;;;;5021899;28;20053;-79
2024/02/25 03:12:52;;;;;;;1.13;1.00;;;1.10;99.90;;;;;;5027052;28;20087;-80
2024/02/25 03:15:19;;;;;;;1.30;1.10;;;1.10;99.90;;;;;;5035431;28;20097;-79
2024/02/25 03:17:46;;;;;;;1.50;1.27;;;1.10;99.90;;;;;;5038528;28;20049;-80
2024/02/25 03:20:14;;;;;;;1.27;1.00;;;1.00;99.90;;;;;;5021787;28;20057;-80
2024/02/25 03:22:42;;;;;;;1.08;0.90;;;1.00;99.90;;;;;;4990740;28;20049;-80
2024/02/25 03:25:09;;;;;;;1.08;0.90;;;1.00;99.90;;;;;;5003750;28;20514;-79
2024/02/25 03:27:37;;;;;;;1.65;1.23;;;1.00;99.90;;;;;;5019540;28;20049;-80
2024/02/25 03:30:08;;;;;;;1.45;1.10;;;1.00;99.90;;;;;;5037880;28;20079;-79
2024/02/25 03:32:35;;;;;;;1.42;1.00;;;1.00;99.90;;;;;;5021451;28;20050;-80
2024/02/25 03:35:02;;;;;;;1.58;1.13;;;1.00;99.90;;;;;;5006986;28;20781;-79
2024/02/25 03:37:29;;;;;;;1.65;1.27;;;1.00;99.90;;;;;;5004791;28;20119;-78
2024/02/25 03:39:56;;;;;;;1.23;1.00;;;1.00;99.90;;;;;;5023535;28;20095;-79
2024/02/25 03:42:27;;;;;;;1.25;0.90;;;1.00;99.90;;;;;;5008471;28;20073;-80
2024/02/25 03:44:53;;;;;;;1.33;0.98;;;0.90;99.90;;;;;;5045537;28;20103;-79
2024/02/25 03:47:20;;;;;;;1.55;1.10;;;0.90;99.90;;;;;;5044678;28;20107;-79
2024/02/25 03:49:47;;;;;;;1.10;1.00;;;0.90;99.90;;;;;;5045642;28;20687;-79
2024/02/25 03:52:15;;;;;;;1.50;1.10;;;0.90;99.90;;;;;;5028021;28;20045;-79
2024/02/25 03:54:45;;;;;;;1.33;1.20;;;0.90;99.90;;;;;;5028030;28;20079;-79
2024/02/25 03:57:13;;;;;;;1.45;1.20;;;0.80;99.90;;;;;;5026784;28;20056;-79
2024/02/25 03:59:40;;;;;;;1.20;1.08;;;0.80;99.90;;;;;;5011270;28;20095;-79
2024/02/25 04:02:07;;;;;;;1.85;1.55;;;0.70;99.90;;;;;;5025126;28;20084;-79
2024/02/25 04:04:35;;;;;;;1.98;1.33;;;0.70;99.90;;;;;;5008340;28;20119;-79
2024/02/25 04:07:02;;;;;;;1.73;1.30;;;0.80;99.90;;;;;;5023938;28;20206;-79
2024/02/25 04:09:29;;;;;;;1.30;1.10;;;0.80;99.90;;;;;;5002777;28;20439;-79
2024/02/25 04:11:55;;;;;;;1.85;1.20;;;0.90;99.90;;;;;;5022839;28;20491;-79
2024/02/25 04:14:22;;;;;;;2.17;1.65;;;0.90;99.90;;;;;;5043169;28;20056;-80
2024/02/25 04:16:50;;;;;;;1.10;0.95;;;0.90;99.90;;;;;;5045622;28;20075;-80
2024/02/25 04:19:16;;;;;;;1.60;1.20;;;0.90;99.90;;;;;;5043731;28;20053;-80
2024/02/25 04:21:43;;;;;;;1.55;1.10;;;0.90;99.90;;;;;;5027504;28;20509;-79
2024/02/25 04:24:11;;;;;;;1.42;1.15;;;1.00;99.90;;;;;;5027709;28;20128;-80
2024/02/25 04:26:38;;;;;;;1.45;1.08;;;0.90;99.90;;;;;;5026150;28;20124;-79
2024/02/25 04:29:05;;;;;;;1.33;1.10;;;0.90;99.90;;;;;;5007636;28;20049;-79
2024/02/25 04:31:31;;;;;;;1.52;1.23;;;0.90;99.90;;;;;;5007569;28;20069;-80
2024/02/25 04:33:58;;;;;;;1.80;1.15;;;0.90;99.90;;;;;;5040352;28;20483;-80
2024/02/25 04:36:26;;;;;;;1.30;1.20;;;0.90;99.90;;;;;;5027261;28;20519;-80
2024/02/25 04:38:52;;;;;;;1.48;1.02;;;0.90;99.90;;;;;;5017126;28;20624;-80
2024/02/25 04:41:20;;;;;;;1.10;1.00;;;0.90;99.90;;;;;;5022932;28;20085;-81
2024/02/25 04:43:47;;;;;;;1.20;1.10;;;0.80;99.90;;;;;;5017498;28;20099;-80
2024/02/25 04:46:14;;;;;;;1.27;1.10;;;0.80;99.90;;;;;;4990976;28;20042;-79
2024/02/25 04:48:42;;;;;;;1.42;1.10;;;0.70;99.90;;;;;;4995564;28;20144;-78
2024/02/25 04:51:09;;;;;;;1.65;1.00;;;0.80;99.90;;;;;;4990822;28;20597;-80
2024/02/25 04:53:39;;;;;;;1.00;0.90;;;0.70;99.90;;;;;;5035960;28;20057;-80
2024/02/25 04:56:06;;;;;;;1.38;1.20;;;0.70;99.90;;;;;;5025333;28;20073;-80
2024/02/25 04:58:33;;;;;;;0.98;0.88;;;0.70;99.90;;;;;;5043416;28;20111;-80
2024/02/25 05:00:59;;;;;;;1.55;0.90;;;0.70;99.90;;;;;;5044646;28;20077;-80
2024/02/25 05:03:26;;;;;;;1.27;1.00;;;0.70;99.90;;;;;;5036966;28;20128;-80
2024/02/25 05:05:54;;;;;;;1.42;1.02;;;0.70;99.90;;;;;;5010882;28;20048;-79
2024/02/25 05:08:21;;;;;;;1.15;0.98;;;0.60;99.90;;;;;;5026736;28;20483;-79
2024/02/25 05:10:48;;;;;;;1.27;0.98;;;0.60;99.90;;;;;;5025400;28;20052;-80
2024/02/25 05:13:17;;;;;;;1.17;1.08;;;0.60;99.90;;;;;;5040609;28;20053;-80
2024/02/25 05:15:44;;;;;;;1.33;1.10;;;0.60;99.90;;;;;;5023284;28;20052;-80
2024/02/25 05:18:10;;;;;;;1.10;0.98;;;0.60;99.90;;;;;;5023854;28;20077;-79
2024/02/25 05:20:37;;;;;;;1.42;1.20;;;0.60;99.90;;;;;;4990113;28;20049;-80
2024/02/25 05:23:08;;;;;;;1.88;1.10;;;0.50;99.90;;;;;;5032583;28;20053;-80
2024/02/25 05:25:35;;;;;;;1.17;1.02;;;0.40;99.90;;;;;;5025692;28;20495;-79
2024/02/25 05:28:03;;;;;;;1.15;0.90;;;0.50;99.90;;;;;;5025355;28;20134;-80
2024/02/25 05:30:31;;;;;;;1.70;1.08;;;0.50;99.90;;;;;;5043957;28;20131;-79
2024/02/25 05:32:58;;;;;;;3.92;1.75;;;0.50;99.90;;;;;;5026624;28;20068;-80
2024/02/25 05:35:25;;;;;;;1.60;1.10;;;0.50;99.90;;;;;;5026328;28;20048;-80
2024/02/25 05:37:52;;;;;;;1.30;1.00;;;0.50;99.90;;;;;;5026023;28;20087;-80
2024/02/25 05:40:20;;;;;;;1.45;1.33;;;0.50;99.90;;;;;;5025724;28;20048;-80
2024/02/25 05:42:47;;;;;;;1.23;1.05;;;0.50;99.90;;;;;;5041967;28;20134;-81
2024/02/25 05:45:15;;;;;;;1.50;1.20;;;0.50;99.90;;;;;;5042973;28;20465;-80
2024/02/25 05:47:43;;;;;;;0.93;0.80;;;0.50;99.90;;;;;;5010776;28;20049;-80
2024/02/25 05:50:11;;;;;;;1.23;1.00;;;0.50;99.90;;;;;;5009648;28;20099;-80
2024/02/25 05:52:38;;;;;;;1.73;1.10;;;0.40;99.90;;;;;;5026549;28;20075;-82
2024/02/25 05:55:05;;;;;;;1.55;1.45;;;0.40;99.90;;;;;;5025709;28;20049;-80
2024/02/25 05:57:32;;;;;;;1.30;0.90;;;0.40;99.90;;;;;;5024908;28;20057;-80
2024/02/25 05:59:59;;;;;;;1.25;0.95;;;0.40;99.90;;;;;;5026205;28;20052;-79
2024/02/25 06:02:26;;;;;;;2.22;1.30;;;0.40;99.90;;;;;;5007868;28;20053;-82
2024/02/25 06:04:53;;;;;;;1.27;1.15;;;0.40;99.90;;;;;;5036165;28;20053;-80
2024/02/25 06:07:23;;;;;;;1.17;1.05;;;0.40;99.90;;;;;;5040126;28;20049;-80
2024/02/25 06:09:50;;;;;;;1.13;1.00;;;0.40;99.90;;;;;;5003985;28;20085;-80
2024/02/25 06:12:17;;;;;;;1.00;0.90;;;0.50;99.90;;;;;;5003304;28;20050;-80
2024/02/25 06:14:44;;;;;;;1.15;0.85;;;0.40;99.90;;;;;;5020605;28;20169;-80
2024/02/25 06:17:11;;;;;;;1.63;1.20;;;0.40;99.90;;;;;;5020762;28;20136;-80
2024/02/25 06:19:38;;;;;;;1.58;0.90;;;0.40;99.90;;;;;;5016323;28;20042;-80
2024/02/25 06:22:05;;;;;;;1.67;0.82;;;0.40;99.90;;;;;;5036830;28;20057;-79
2024/02/25 06:24:32;;;;;;;1.35;0.98;;;0.40;99.90;;;;;;5039954;28;20129;-79
2024/02/25 06:26:59;;;;;;;1.75;1.10;;;0.40;99.90;;;;;;5022648;28;20132;-80
2024/02/25 06:29:26;;;;;;;0.95;0.85;;;0.40;99.90;;;;;;5041282;28;20048;-80
2024/02/25 06:31:56;;;;;;;1.48;1.30;;;0.40;99.90;;;;;;5023341;28;20160;-80
2024/02/25 06:34:24;;;;;;;1.20;1.10;;;0.40;99.90;;;;;;5039216;28;20122;-80
2024/02/25 06:36:51;;;;;;;1.17;0.90;;;0.40;99.90;;;;;;5023060;28;20045;-80
2024/02/25 06:39:19;;;;;;;1.42;0.90;;;0.40;99.90;;;;;;5039809;28;20053;-80
2024/02/25 06:41:47;;;;;;;1.08;0.80;;;0.40;99.90;;;;;;5038358;28;20049;-79
2024/02/25 06:44:14;;;;;;;1.00;0.90;;;0.40;99.90;;;;;;5019489;28;20072;-80
2024/02/25 06:46:41;;;;;;;1.42;1.00;;;0.40;99.90;;;;;;5003086;28;20392;-80
2024/02/25 06:49:08;;;;;;;1.00;0.82;;;0.40;99.90;;;;;;5011469;28;20053;-79
2024/02/25 06:51:35;;;;;;;0.98;0.88;;;0.40;99.90;;;;;;5019770;28;20099;-78
2024/02/25 06:54:04;;;;;;;1.02;0.80;;;0.30;99.90;;;;;;5038821;28;20056;-80
2024/02/25 06:56:32;;;;;;;1.58;1.08;;;0.40;99.90;;;;;;5022203;28;20045;-79
2024/02/25 06:58:59;;;;;;;1.88;1.15;;;0.40;99.90;;;;;;5019647;28;20061;-79
2024/02/25 07:01:27;;;;;;;1.27;0.82;;;0.40;99.90;;;;;;5019628;28;20046;-79
2024/02/25 07:03:54;;;;;;;1.50;1.15;;;0.40;99.90;;;;;;5034402;28;20057;-80
2024/02/25 07:06:21;;;;;;;1.10;0.80;;;0.40;99.90;;;;;;5006628;28;20053;-80
2024/02/25 07:08:50;;;;;;;0.85;0.85;;;0.50;99.90;;;;;;5019030;28;20572;-79
2024/02/25 07:11:17;;;;;;;0.98;0.88;;;0.50;99.90;;;;;;4986449;28;20104;-79
2024/02/25 07:13:45;;;;;;;1.00;0.90;;;0.60;99.90;;;;;;5024952;28;20046;-78
2024/02/25 07:16:12;;;;;;;0.88;0.77;;;0.60;99.90;;;;;;5011775;28;20050;-81
2024/02/25 07:18:39;;;;;;;2.10;1.55;;;0.70;99.90;;;;;;5008633;28;20297;-80
2024/02/25 07:21:08;;;;;;;1.20;1.08;;;0.70;99.90;;;;;;5031276;28;20052;-80
2024/02/25 07:23:40;;;;;;;1.33;1.02;;;0.70;99.90;;;;;;5025368;28;20065;-80
2024/02/25 07:26:07;;;;;;;1.73;1.30;;;0.80;99.90;;;;;;5031923;28;20617;-80
2024/02/25 07:28:41;;;;;;;1.05;0.95;;;0.80;99.90;;;;;;5000854;28;20050;-80
2024/02/25 07:31:18;;;;;;;0.98;0.77;;;0.80;99.90;;;;;;5007950;28;20061;-80
2024/02/25 07:33:46;;;;;;;1.13;0.82;;;0.90;99.90;;;;;;5035312;28;20083;-79
2024/02/25 07:36:14;;;;;;;1.08;0.80;;;0.90;99.90;;;;;;5026448;28;20107;-80
2024/02/25 07:38:42;;;;;;;1.17;1.08;;;1.00;99.90;;;;;;5026373;28;20134;-78
2024/02/25 07:41:09;;;;;;;1.02;0.82;;;1.00;99.90;;;;;;5024645;28;20184;-76
2024/02/25 07:43:36;;;;;;;0.80;0.80;;;1.10;99.90;;;;;;5005826;28;20091;-76
2024/02/25 07:46:03;;;;;;;0.80;0.70;;;1.20;99.90;;;;;;4989549;28;20129;-77
2024/02/25 07:48:31;;;;;;;0.73;0.73;;;1.30;99.90;;;;;;5008893;28;20394;-76
2024/02/25 07:50:58;;;;;;;0.70;0.70;;;1.40;99.90;;;;;;5038519;28;20124;-76
2024/02/25 07:53:25;;;;;;;1.08;0.98;;;1.50;99.90;;;;;;5008432;28;20526;-76
2024/02/25 07:55:52;;;;;;;0.77;0.77;;;1.60;99.90;;;;;;5014752;28;20057;-76
2024/02/25 07:58:19;;;;;;;0.88;0.77;;;1.70;99.90;;;;;;5016955;28;20041;-77
2024/02/25 08:00:46;;;;;;;1.00;0.90;;;1.80;99.90;;;;;;5030668;28;20137;-78
2024/02/25 08:03:12;;;;;;;0.82;0.82;;;1.80;99.90;;;;;;5013721;28;20170;-80
2024/02/25 08:05:40;;;;;;;0.90;0.80;;;1.90;99.90;;;;;;5046705;28;20125;-78
2024/02/25 08:08:07;;;;;;;0.80;0.80;;;2.00;99.90;;;;;;5040166;28;20172;-78
2024/02/25 08:10:39;;;;;;;1.30;1.13;;;2.00;99.90;;;;;;5038434;28;20662;-76
2024/02/25 08:13:06;;;;;;;0.68;0.65;;;2.10;99.90;;;;;;5021354;28;20052;-77
2024/02/25 08:15:36;;;;;;;0.60;0.60;;;2.20;99.90;;;;;;5050650;28;20502;-84
2024/02/25 08:18:06;;;;;;;0.63;0.63;;;2.20;99.90;;;;;;5050075;28;20075;-86
2024/02/25 08:20:43;;;;;;;0.82;0.65;;;2.30;99.90;;;;;;5060953;28;20064;-85
2024/02/25 08:23:12;;;;;;;1.00;0.90;;;2.30;99.90;;;;;;5031102;28;20487;-85
2024/02/25 08:25:39;;;;;;;0.68;0.65;;;2.40;99.90;;;;;;5017256;28;20060;-85
2024/02/25 08:28:06;;;;;;;0.60;0.60;;;2.50;99.90;;;;;;5034386;28;20065;-85
2024/02/25 08:30:37;;;;;;;0.88;0.77;;;2.60;99.90;;;;;;5032690;28;20049;-86
2024/02/25 08:33:05;;;;;;;0.90;0.80;;;2.70;99.90;;;;;;5032273;28;20072;-86
2024/02/25 08:35:33;;;;;;;0.73;0.70;;;2.80;99.90;;;;;;5017048;28;20076;-86
2024/02/25 08:38:29;;;;;;;0.85;0.82;;;2.90;99.90;;;;;;5009007;28;20052;-86
2024/02/25 08:40:58;;;;;;;0.85;0.75;;;3.00;99.90;;;;;;5027683;28;20107;-86
2024/02/25 08:43:32;;;;;;;0.85;0.75;;;3.20;99.90;;;;;;5013551;28;20605;-84
2024/02/25 08:46:04;;;;;;;0.73;0.73;;;3.30;99.90;;;;;;5029787;28;20077;-85
2024/02/25 08:48:33;;;;;;;0.75;0.70;;;3.40;99.90;;;;;;5029819;28;20052;-85
2024/02/25 08:51:00;;;;;;;1.35;0.75;;;3.40;99.90;;;;;;5028901;28;20046;-85
2024/02/25 08:53:30;;;;;;;0.65;0.65;;;3.50;99.90;;;;;;5031630;28;20053;-87
2024/02/25 08:55:58;;;;;;;0.93;0.65;;;3.60;99.90;;;;;;5047686;28;20052;-86
2024/02/25 08:58:33;;;;;;;0.70;0.70;;;3.70;99.90;;;;;;5016330;28;20110;-86
2024/02/25 09:01:01;;;;;;;0.57;0.57;;;3.80;99.90;;;;;;5024569;28;20065;-86
2024/02/25 09:03:29;;;;;;;0.63;0.63;;;4.00;99.90;;;;;;5043228;28;20084;-85
2024/02/25 09:06:11;;;;;;;0.68;0.68;;;4.10;99.90;;;;;;5040121;28;20564;-86
2024/02/25 09:08:39;;;;;;;0.70;0.70;;;4.30;99.90;;;;;;5026884;28;20058;-85
2024/02/25 09:11:06;;;;;;;0.85;0.80;;;4.40;99.90;;;;;;5016430;28;20150;-84
2024/02/25 09:13:35;;;;;;;0.85;0.82;;;4.60;99.90;;;;;;5030378;28;20053;-86
2024/02/25 09:16:02;;;;;;;0.80;0.80;;;4.80;99.90;;;;;;5030217;28;20060;-85
2024/02/25 09:18:32;;;;;;;0.70;0.70;;;5.00;99.90;;;;;;5015291;28;20053;-84
2024/02/25 09:21:00;;;;;;;0.70;0.70;;;5.10;99.90;;;;;;5008508;28;20045;-85
2024/02/25 09:23:27;;;;;;;1.08;0.85;;;5.30;99.90;;;;;;5022434;28;20216;-83
2024/02/25 09:25:55;;;;;;;1.08;0.98;;;5.50;99.90;;;;;;5026082;28;20607;-84
2024/02/25 09:28:24;;;;;;;0.80;0.55;;;5.70;99.90;;;;;;5030803;28;20479;-85
2024/02/25 09:30:51;;;;;;;0.35;0.35;;;5.80;99.90;;;;;;5003482;28;20467;-84
2024/02/25 09:33:20;;;;;;;0.63;0.63;;;5.90;99.90;;;;;;5023862;28;20588;-85
2024/02/25 09:35:49;;;;;;;0.70;0.70;;;6.00;99.90;;;;;;5037319;28;20053;-85
2024/02/25 09:38:17;;;;;;;1.15;0.90;;;6.10;99.90;;;;;;5026566;28;20049;-85
2024/02/25 09:40:44;;;;;;;1.05;0.90;;;6.00;99.90;;;;;;5044101;28;20081;-85
2024/02/25 09:43:13;;;;;;;1.13;1.02;;;6.00;99.90;;;;;;5025203;28;20354;-85
2024/02/25 09:45:42;;;;;;;1.45;1.08;;;6.10;99.90;;;;;;5028471;28;20057;-85
2024/02/25 09:48:10;;;;;;;1.48;1.13;;;6.10;99.90;;;;;;5028642;28;20581;-85
2024/02/25 09:50:40;;;;;;;1.77;1.17;;;6.20;99.90;;;;;;5017075;28;20048;-84
2024/02/25 09:53:10;;;;;;;1.13;1.00;;;6.30;99.90;;;;;;5007315;28;20484;-85
2024/02/25 09:55:38;;;;;;;1.17;0.90;;;6.40;99.90;;;;;;4991477;28;20581;-85
2024/02/25 09:58:06;;;;;;;1.08;0.70;;;6.60;99.90;;;;;;5026599;28;20053;-84
2024/02/25 10:00:35;;;;;;;0.80;0.73;;;6.60;99.90;;;;;;5012284;28;20085;-85
2024/02/25 10:03:07;;;;;;;1.10;0.90;;;6.80;99.90;;;;;;5006207;28;20095;-85
2024/02/25 10:05:36;;;;;;;0.85;0.80;;;7.00;99.90;;;;;;5036995;28;20132;-84
2024/02/25 10:08:12;;;;;;;0.50;0.50;;;7.10;99.90;;;;;;5025302;28;20049;-85
2024/02/25 10:10:41;;;;;;;1.20;0.80;;;7.10;99.90;;;;;;5012238;28;20099;-85
2024/02/25 10:13:09;;;;;;;0.43;0.43;;;7.10;99.90;;;;;;5014337;28;20060;-86
2024/02/25 10:15:38;;;;;;;0.68;0.60;;;7.10;99.90;;;;;;5034217;28;20152;-85
2024/02/25 10:18:06;;;;;;;0.60;0.60;;;7.10;99.90;;;;;;5002360;28;20065;-85
2024/02/25 10:20:33;;;;;;;1.20;0.70;;;7.10;99.90;;;;;;5007708;28;20072;-85
2024/02/25 10:23:07;;;;;;;0.80;0.77;;;7.10;99.90;;;;;;4999293;28;20045;-85
2024/02/25 10:25:37;;;;;;;2.40;0.70;;;7.20;99.90;;;;;;5036506;28;20056;-84
2024/02/25 10:28:16;;;;;;;0.98;0.93;;;7.30;99.90;;;;;;5023817;28;20049;-89
2024/02/25 10:30:59;;;;;;;1.00;0.70;;;7.30;99.90;;;;;;5009578;28;20121;-77
2024/02/25 10:33:26;;;;;;;0.60;0.60;;;7.40;99.90;;;;;;5000796;28;20077;-77
2024/02/25 10:35:54;;;;;;;0.55;0.55;;;7.50;99.90;;;;;;5000240;28;20227;-77
2024/02/25 10:38:20;;;;;;;1.65;0.90;;;7.60;99.90;;;;;;5009287;28;20057;-77
2024/02/25 10:40:48;;;;;;;0.40;0.40;;;7.70;99.90;;;;;;5010851;28;20053;-76
2024/02/25 10:43:15;;;;;;;0.80;0.70;;;7.80;99.90;;;;;;5006184;28;20110;-77
2024/02/25 10:45:42;;;;;;;1.73;0.80;;;7.90;99.90;;;;;;5001539;28;20049;-77
2024/02/25 10:48:11;;;;;;;0.85;0.85;;;8.00;99.90;;;;;;5019091;28;20519;-77
2024/02/25 10:50:41;;;;;;;1.48;0.80;;;8.10;99.90;;;;;;5010880;28;20049;-77
2024/02/25 10:53:10;;;;;;;0.85;0.80;;;8.20;99.90;;;;;;5036772;28;20064;-77
2024/02/25 10:55:37;;;;;;;1.77;0.85;;;8.40;99.90;;;;;;5019795;28;20055;-77
2024/02/25 10:58:04;;;;;;;0.60;0.50;;;8.40;99.90;;;;;;5011988;28;20119;-76
2024/02/25 11:00:30;;;;;;;0.82;0.77;;;8.50;99.90;;;;;;5006220;28;20466;-77
2024/02/25 11:02:57;;;;;;;1.27;0.90;;;8.70;99.90;;;;;;4993367;28;20049;-77
2024/02/25 11:05:24;;;;;;;0.82;0.77;;;8.90;99.90;;;;;;5018242;28;20379;-77
2024/02/25 11:07:51;;;;;;;0.90;0.70;;;9.00;99.90;;;;;;4995782;28;20060;-79
2024/02/25 11:10:22;;;;;;;1.15;0.50;;;9.10;99.90;;;;;;5026463;28;20737;-77
2024/02/25 11:12:49;;;;;;;0.65;0.60;;;9.10;99.90;;;;;;5022356;28;20053;-77
2024/02/25 11:15:21;;;;;;;1.15;0.68;;;9.10;99.90;;;;;;5007957;28;20054;-77
2024/02/25 11:17:50;;;;;;;1.50;0.75;;;9.30;99.90;;;;;;5023994;28;20095;-78
2024/02/25 11:20:27;;;;;;;0.65;0.65;;;9.40;99.90;;;;;;5008028;28;20271;-77
2024/02/25 11:22:55;;;;;;;1.83;0.80;;;9.40;99.90;;;;;;5020448;28;20060;-76
2024/02/25 11:25:32;;;;;;;2.35;0.95;;;9.60;99.90;;;;;;5000058;28;20045;-76
2024/02/25 11:28:12;;;;;;;0.73;0.73;;;9.80;99.90;;;;;;5021986;28;20558;-77
2024/02/25 11:30:49;;;;;;;1.55;0.75;;;10.10;99.90;;;;;;5020448;28;20080;-77
2024/02/25 11:33:22;;;;;;;1.67;1.08;;;10.20;99.90;;;;;;5013785;28;20048;-77
2024/02/25 11:35:59;;;;;;;1.70;0.80;;;10.30;99.90;;;;;;5035777;28;20515;-78
2024/02/25 11:38:27;;;;;;;2.90;0.90;;;10.40;99.90;;;;;;5021337;28;20654;-78
2024/02/25 11:40:58;;;;;;;1.05;0.80;;;10.40;99.90;;;;;;4998820;28;20649;-77
2024/02/25 11:43:25;;;;;;;1.52;0.77;;;10.40;99.90;;;;;;5012823;28;20065;-78
2024/02/25 11:45:52;;;;;;;1.48;0.88;;;10.40;99.90;;;;;;5002182;28;20056;-77
2024/02/25 11:48:18;;;;;;;2.35;1.58;;;10.30;99.90;;;;;;4992681;28;20498;-77
2024/02/25 11:50:47;;;;;;;1.77;1.05;;;10.30;99.90;;;;;;5017082;28;20053;-78
2024/02/25 11:53:14;;;;;;;2.88;1.13;;;10.30;99.90;;;;;;5006019;28;20103;-78
2024/02/25 11:55:43;;;;;;;1.63;0.85;;;10.40;99.90;;;;;;5022305;28;20130;-77
2024/02/25 11:58:09;;;;;;;3.22;1.25;;;10.60;99.90;;;;;;5015761;28;20041;-77
2024/02/25 12:00:37;;;;;;;1.83;1.10;;;10.70;99.90;;;;;;5016121;28;20483;-77
2024/02/25 12:03:05;;;;;;;2.03;1.10;;;10.80;99.90;;;;;;5006534;28;20048;-77
2024/02/25 12:05:32;;;;;;;2.15;1.30;;;10.70;99.90;;;;;;5013118;28;20630;-77
2024/02/25 12:07:59;;;;;;;1.77;1.10;;;10.60;99.90;;;;;;5022371;28;20159;-77
2024/02/25 12:10:26;;;;;;;1.98;1.27;;;10.70;99.90;;;;;;5021481;28;20045;-77
2024/02/25 12:12:54;;;;;;;1.80;1.30;;;10.50;99.90;;;;;;5027321;28;20053;-78
2024/02/25 12:15:26;;;;;;;1.35;0.90;;;10.50;99.90;;;;;;5016149;28;20050;-78
2024/02/25 12:17:53;;;;;;;2.85;1.10;;;10.40;99.90;;;;;;5027728;28;20128;-77
2024/02/25 12:20:20;;;;;;;2.30;1.65;;;10.40;99.90;;;;;;5026344;28;20061;-78
2024/02/25 12:22:47;;;;;;;3.00;1.38;;;10.40;99.90;;;;;;5021474;28;20045;-76
2024/02/25 12:25:18;;;;;;;2.33;1.08;;;10.40;99.90;;;;;;5038579;28;20135;-77
2024/02/25 12:27:45;;;;;;;1.80;1.20;;;10.40;99.90;;;;;;4994209;28;20869;-77
2024/02/25 12:30:13;;;;;;;1.67;0.80;;;10.40;99.90;;;;;;5010185;28;20336;-77
2024/02/25 12:32:40;;;;;;;1.98;0.90;;;10.50;99.90;;;;;;5026285;28;20075;-77
2024/02/25 12:35:07;;;;;;;2.53;1.33;;;10.50;99.90;;;;;;5016931;28;20139;-76
2024/02/25 12:37:35;;;;;;;1.45;0.75;;;10.30;99.90;;;;;;5025566;28;20447;-77
2024/02/25 12:40:08;;;;;;;1.80;1.20;;;10.30;99.90;;;;;;5026028;28;20049;-77
2024/02/25 12:42:35;;;;;;;2.15;0.95;;;10.10;99.90;;;;;;5008643;28;20053;-77
2024/02/25 12:45:02;;;;;;;4.25;2.45;;;9.90;99.90;;;;;;5031133;28;20045;-77
2024/02/25 12:47:29;;;;;;;1.33;0.80;;;9.80;99.90;;;;;;5021647;28;20064;-77
2024/02/25 12:49:56;;;;;;;2.15;1.30;;;9.70;99.90;;;;;;5021552;28;20577;-77
2024/02/25 12:52:23;;;;;;;2.05;1.20;;;9.60;99.90;;;;;;5023021;28;20134;-77
2024/02/25 12:54:50;;;;;;;3.28;1.40;;;9.60;99.90;;;;;;5013059;28;20057;-77
2024/02/25 12:57:16;;;;;;;3.53;1.65;;;9.50;99.90;;;;;;5021348;28;20077;-77
2024/02/25 12:59:44;;;;;;;2.75;1.60;;;9.50;99.90;;;;;;5004487;28;20049;-77